createdAt,value
2022-11-07T00:01:40.036Z,6.80
2022-11-07T00:04:06.875Z,9.18
2022-11-07T00:06:33.714Z,7.65
2022-11-07T00:09:00.426Z,10.27
2022-11-07T00:11:27.169Z,7.57
2022-11-07T00:13:54.495Z,10.25
2022-11-07T00:16:21.244Z,7.50
2022-11-07T00:18:48.082Z,8.13
2022-11-07T00:21:14.846Z,8.30
2022-11-07T00:23:41.982Z,7.72
2022-11-07T00:26:12.869Z,6.45
2022-11-07T00:28:42.451Z,6.68
2022-11-07T00:31:12.555Z,6.93
2022-11-07T00:33:39.600Z,7.28
2022-11-07T00:36:07.328Z,7.85
2022-11-07T00:38:34.108Z,12.25
2022-11-07T00:41:04.923Z,7.53
2022-11-07T00:43:32.338Z,9.00
2022-11-07T00:46:05.790Z,6.65
2022-11-07T00:48:33.468Z,8.70
2022-11-07T00:51:07.641Z,7.18
2022-11-07T00:53:34.434Z,5.60
2022-11-07T00:56:07.612Z,5.88
2022-11-07T00:58:35.211Z,14.82
2022-11-07T01:01:09.384Z,9.48
2022-11-07T01:03:55.468Z,6.85
2022-11-07T01:06:22.513Z,5.05
2022-11-07T01:08:49.438Z,7.93
2022-11-07T01:11:16.205Z,11.35
2022-11-07T01:13:42.998Z,10.57
2022-11-07T01:16:10.976Z,6.78
2022-11-07T01:18:38.014Z,5.60
2022-11-07T01:21:16.148Z,6.97
2022-11-07T01:23:43.337Z,6.60
2022-11-07T01:26:12.267Z,7.00
2022-11-07T01:28:39.469Z,7.28
2022-11-07T01:31:09.684Z,5.78
2022-11-07T01:33:37.847Z,5.55
2022-11-07T01:36:17.539Z,7.35
2022-11-07T01:38:50.912Z,5.43
2022-11-07T01:41:26.409Z,6.32
2022-11-07T01:44:03.893Z,7.45
2022-11-07T01:46:36.085Z,6.97
2022-11-07T01:49:06.012Z,6.28
2022-11-07T01:51:39.821Z,9.07
2022-11-07T01:54:07.731Z,6.32
2022-11-07T01:56:38.117Z,7.13
2022-11-07T01:59:05.656Z,6.32
2022-11-07T02:01:32.935Z,6.38
2022-11-07T02:04:01.016Z,4.85
2022-11-07T02:07:02.535Z,4.53
2022-11-07T02:09:29.562Z,5.47
2022-11-07T02:12:01.137Z,6.35
2022-11-07T02:14:29.585Z,5.20
2022-11-07T02:16:56.444Z,7.20
2022-11-07T02:19:41.572Z,4.72
2022-11-07T02:22:50.745Z,6.15
2022-11-07T02:25:20.288Z,5.50
2022-11-07T02:27:50.644Z,6.78
2022-11-07T02:30:35.476Z,6.10
2022-11-07T02:33:03.098Z,4.82
2022-11-07T02:35:42.789Z,8.25
2022-11-07T02:38:16.386Z,7.95
2022-11-07T02:40:52.080Z,9.57
2022-11-07T02:43:22.845Z,5.90
2022-11-07T02:45:51.010Z,7.05
2022-11-07T02:48:18.578Z,22.67
2022-11-07T02:50:46.217Z,10.77
2022-11-07T02:53:13.425Z,9.38
2022-11-07T02:55:40.339Z,9.23
2022-11-07T02:58:07.122Z,8.00
2022-11-07T03:00:33.858Z,6.50
2022-11-07T03:03:00.605Z,7.90
2022-11-07T03:05:27.349Z,7.30
2022-11-07T03:07:54.074Z,7.97
2022-11-07T03:10:20.887Z,6.93
2022-11-07T03:12:47.757Z,8.18
2022-11-07T03:15:15.166Z,7.97
2022-11-07T03:17:42.374Z,6.22
2022-11-07T03:20:10.769Z,4.57
2022-11-07T03:22:37.814Z,7.28
2022-11-07T03:25:06.216Z,8.82
2022-11-07T03:27:33.035Z,8.48
2022-11-07T03:29:59.797Z,14.60
2022-11-07T03:32:26.641Z,7.85
2022-11-07T03:34:53.421Z,7.85
2022-11-07T03:37:20.224Z,6.45
2022-11-07T03:39:46.960Z,8.52
2022-11-07T03:42:13.754Z,7.40
2022-11-07T03:44:40.663Z,7.40
2022-11-07T03:47:07.449Z,8.55
2022-11-07T03:49:34.173Z,6.07
2022-11-07T03:52:01.018Z,6.10
2022-11-07T03:54:27.780Z,6.57
2022-11-07T03:56:54.508Z,6.47
2022-11-07T03:59:21.271Z,6.88
2022-11-07T04:01:48.103Z,7.78
2022-11-07T04:04:15.070Z,6.43
2022-11-07T04:06:41.905Z,7.07
2022-11-07T04:09:08.806Z,9.88
2022-11-07T04:11:53.748Z,7.15
2022-11-07T04:14:39.243Z,7.43
2022-11-07T04:17:20.273Z,5.28
2022-11-07T04:19:57.793Z,7.85
2022-11-07T04:22:25.969Z,6.75
2022-11-07T04:24:52.704Z,20.83
2022-11-07T04:27:38.947Z,18.20
2022-11-07T04:30:28.215Z,4.05
2022-11-07T04:33:00.038Z,16.30
2022-11-07T04:35:31.193Z,6.25
2022-11-07T04:37:59.047Z,11.65
2022-11-07T04:40:26.410Z,34.78
2022-11-07T04:42:54.903Z,5.93
2022-11-07T04:45:21.650Z,4.82
2022-11-07T04:47:48.849Z,5.18
2022-11-07T04:50:18.436Z,17.00
2022-11-07T04:52:47.575Z,4.32
2022-11-07T04:55:24.028Z,5.60
2022-11-07T04:57:51.053Z,5.22
2022-11-07T05:00:19.849Z,5.63
2022-11-07T05:02:47.521Z,8.85
2022-11-07T05:05:14.531Z,8.63
2022-11-07T05:07:41.949Z,6.93
2022-11-07T05:10:17.514Z,8.43
2022-11-07T05:12:44.333Z,5.60
2022-11-07T05:15:11.085Z,6.82
2022-11-07T05:17:37.849Z,7.22
2022-11-07T05:20:05.368Z,6.97
2022-11-07T05:23:07.267Z,13.30
2022-11-07T05:25:33.986Z,13.25
2022-11-07T05:28:00.693Z,8.18
2022-11-07T05:30:28.549Z,7.35
2022-11-07T05:32:55.289Z,5.78
2022-11-07T05:35:22.008Z,5.65
2022-11-07T05:37:49.080Z,6.22
2022-11-07T05:40:15.954Z,7.30
2022-11-07T05:42:42.734Z,9.02
2022-11-07T05:45:10.341Z,10.10
2022-11-07T05:47:37.073Z,8.45
2022-11-07T05:50:04.037Z,8.43
2022-11-07T05:52:32.118Z,8.20
2022-11-07T05:54:58.856Z,6.50
2022-11-07T05:57:25.597Z,7.78
2022-11-07T05:59:52.333Z,6.13
2022-11-07T06:02:19.181Z,5.32
2022-11-07T06:04:46.007Z,5.47
2022-11-07T06:07:12.796Z,7.50
2022-11-07T06:09:39.554Z,9.50
2022-11-07T06:12:06.681Z,7.45
2022-11-07T06:14:33.756Z,6.70
2022-11-07T06:17:00.495Z,9.02
2022-11-07T06:19:27.196Z,5.97
2022-11-07T06:21:53.925Z,7.15
2022-11-07T06:24:20.658Z,5.03
2022-11-07T06:26:47.441Z,7.05
2022-11-07T06:29:14.293Z,7.40
2022-11-07T06:31:41.029Z,10.35
2022-11-07T06:34:07.874Z,10.10
2022-11-07T06:36:34.602Z,8.82
2022-11-07T06:39:01.318Z,5.68
2022-11-07T06:41:28.080Z,8.57
2022-11-07T06:43:54.969Z,7.78
2022-11-07T06:46:23.313Z,5.95
2022-11-07T06:48:50.067Z,6.18
2022-11-07T06:51:17.350Z,6.18
2022-11-07T06:53:44.123Z,12.30
2022-11-07T06:56:15.370Z,7.45
2022-11-07T06:58:42.396Z,5.55
2022-11-07T07:01:13.794Z,7.60
2022-11-07T07:03:42.661Z,6.78
2022-11-07T07:06:16.182Z,6.70
2022-11-07T07:08:44.603Z,8.63
2022-11-07T07:11:14.821Z,6.82
2022-11-07T07:13:42.005Z,7.38
2022-11-07T07:16:09.327Z,8.95
2022-11-07T07:18:36.198Z,7.25
2022-11-07T07:21:10.078Z,8.80
2022-11-07T07:23:38.621Z,10.27
2022-11-07T07:26:09.009Z,9.95
2022-11-07T07:28:37.348Z,8.45
2022-11-07T07:31:16.048Z,7.78
2022-11-07T07:33:44.597Z,8.10
2022-11-07T07:36:17.846Z,5.97
2022-11-07T07:38:48.618Z,9.70
2022-11-07T07:41:16.199Z,7.05
2022-11-07T07:43:43.053Z,8.23
2022-11-07T07:46:16.513Z,7.53
2022-11-07T07:48:43.340Z,8.77
2022-11-07T07:51:10.116Z,7.47
2022-11-07T07:53:36.955Z,7.20
2022-11-07T07:56:06.449Z,5.45
2022-11-07T07:58:34.091Z,9.10
2022-11-07T08:01:01.295Z,6.90
2022-11-07T08:03:31.969Z,10.88
2022-11-07T08:06:02.519Z,7.25
2022-11-07T08:08:32.632Z,6.97
2022-11-07T08:11:06.156Z,7.05
2022-11-07T08:13:33.394Z,6.57
2022-11-07T08:16:04.913Z,8.88
2022-11-07T08:18:31.653Z,9.23
2022-11-07T08:20:58.474Z,8.23
2022-11-07T08:23:25.264Z,8.40
2022-11-07T08:26:00.031Z,77.47
2022-11-07T08:28:29.650Z,76.07
2022-11-07T08:31:07.373Z,33.63
2022-11-07T08:33:34.971Z,29.00
2022-11-07T08:36:03.365Z,32.47
2022-11-07T08:38:32.573Z,26.02
2022-11-07T08:41:00.356Z,24.25
2022-11-07T08:43:27.451Z,20.48
2022-11-07T08:45:55.525Z,14.35
2022-11-07T08:48:23.624Z,19.58
2022-11-07T08:50:54.923Z,21.23
2022-11-07T08:53:23.054Z,8.43
2022-11-07T08:55:49.927Z,12.32
2022-11-07T08:58:16.982Z,15.27
2022-11-07T09:00:44.119Z,9.20
2022-11-07T09:06:03.449Z,13.35
2022-11-07T09:08:30.397Z,11.85
2022-11-07T09:11:04.883Z,7.25
2022-11-07T09:13:32.896Z,8.52
2022-11-07T09:16:01.824Z,4.68
2022-11-07T09:18:30.945Z,3.88
2022-11-07T09:20:58.736Z,3.17
2022-11-07T09:23:25.949Z,4.80
2022-11-07T09:25:52.741Z,3.88
2022-11-07T09:28:19.651Z,8.13
2022-11-07T09:30:46.442Z,15.23
2022-11-07T09:33:13.524Z,8.02
2022-11-07T09:35:40.631Z,5.35
2022-11-07T09:38:07.348Z,6.07
2022-11-07T09:40:58.759Z,4.25
2022-11-07T09:43:46.857Z,3.70
2022-11-07T09:46:35.528Z,4.75
2022-11-07T09:49:20.698Z,4.65
2022-11-07T09:52:03.831Z,4.28
2022-11-07T09:57:02.253Z,4.30
2022-11-07T09:59:40.914Z,3.47
2022-11-07T10:02:16.783Z,4.28
2022-11-07T10:04:47.004Z,4.60
2022-11-07T10:08:02.521Z,7.47
2022-11-07T10:10:54.094Z,2.05
2022-11-07T10:13:41.093Z,2.20
2022-11-07T10:16:54.573Z,2.08
2022-11-07T10:19:42.275Z,3.13
2022-11-07T10:22:57.338Z,3.92
2022-11-07T10:25:33.191Z,5.30
2022-11-07T10:28:15.705Z,2.80
2022-11-07T10:30:50.753Z,2.67
2022-11-07T10:33:48.190Z,4.97
2022-11-07T10:36:21.968Z,4.20
2022-11-07T10:38:49.362Z,4.40
2022-11-07T10:41:19.486Z,9.40
2022-11-07T10:43:53.082Z,5.47
2022-11-07T10:46:26.030Z,12.15
2022-11-07T10:51:42.256Z,2.35
2022-11-07T10:54:29.996Z,3.45
2022-11-07T10:57:19.673Z,5.10
2022-11-07T10:59:57.431Z,1.67
2022-11-07T11:02:43.006Z,4.68
2022-11-07T11:05:46.270Z,3.33
2022-11-07T11:08:22.740Z,4.50
2022-11-07T11:10:50.381Z,1.85
2022-11-07T11:13:34.252Z,1.60
2022-11-07T11:16:24.975Z,4.05
2022-11-07T11:18:54.949Z,2.00
2022-11-07T11:21:22.272Z,1.83
2022-11-07T11:23:50.032Z,1.67
2022-11-07T11:26:33.873Z,3.10
2022-11-07T11:29:13.793Z,3.25
2022-11-07T11:31:46.606Z,1.40
2022-11-07T11:34:26.650Z,2.53
2022-11-07T11:37:06.117Z,3.75
2022-11-07T11:39:50.448Z,1.45
2022-11-07T11:42:47.800Z,1.92
2022-11-07T11:45:26.976Z,1.75
2022-11-07T11:48:10.116Z,3.83
2022-11-07T11:50:53.102Z,1.98
2022-11-07T11:53:22.438Z,3.50
2022-11-07T11:56:45.282Z,1.80
2022-11-07T11:59:26.869Z,1.42
2022-11-07T12:02:33.915Z,3.97
2022-11-07T12:05:19.780Z,4.10
2022-11-07T12:07:56.874Z,6.50
2022-11-07T12:10:54.176Z,4.85
2022-11-07T12:13:39.860Z,1.80
2022-11-07T12:16:15.875Z,5.60
2022-11-07T12:19:20.021Z,5.22
2022-11-07T12:22:03.061Z,2.97
2022-11-07T12:24:53.006Z,3.00
2022-11-07T12:27:43.998Z,2.40
2022-11-07T12:30:42.688Z,3.95
2022-11-07T12:34:05.920Z,4.30
2022-11-07T12:37:02.929Z,2.85
2022-11-07T12:39:32.504Z,4.90
2022-11-07T12:42:08.734Z,3.88
2022-11-07T12:45:03.376Z,6.30
2022-11-07T12:48:28.135Z,4.93
2022-11-07T12:51:15.978Z,9.20
2022-11-07T12:54:16.652Z,3.97
2022-11-07T12:56:46.634Z,4.43
2022-11-07T12:59:27.249Z,1.95
2022-11-07T13:02:09.583Z,2.05
2022-11-07T13:04:49.402Z,3.27
2022-11-07T13:07:47.036Z,6.50
2022-11-07T13:10:19.395Z,2.63
2022-11-07T13:13:23.840Z,2.00
2022-11-07T13:16:14.122Z,1.88
2022-11-07T13:18:37.341Z,1.50
2022-11-07T13:21:06.878Z,3.30
2022-11-07T13:23:33.707Z,4.28
2022-11-07T13:26:25.954Z,1.58
2022-11-07T13:29:02.390Z,1.98
2022-11-07T13:31:40.449Z,9.57
2022-11-07T13:34:20.711Z,3.28
2022-11-07T13:36:50.085Z,2.58
2022-11-07T13:39:18.267Z,0.95
2022-11-07T13:41:46.285Z,3.92
2022-11-07T13:44:54.608Z,1.33
2022-11-07T13:47:35.618Z,3.08
2022-11-07T13:50:23.715Z,2.17
2022-11-07T13:53:03.800Z,3.35
2022-11-07T13:55:42.291Z,3.83
2022-11-07T13:58:13.642Z,5.97
2022-11-07T14:00:40.782Z,3.70
2022-11-07T14:03:29.513Z,10.18
2022-11-07T14:05:56.936Z,24.27
2022-11-07T14:08:31.374Z,11.07
2022-11-07T14:10:59.068Z,5.22
2022-11-07T14:13:30.322Z,3.22
2022-11-07T14:16:01.781Z,3.58
2022-11-07T14:18:34.220Z,4.38
2022-11-07T14:21:01.580Z,6.82
2022-11-07T14:23:34.879Z,6.82
2022-11-07T14:26:20.988Z,3.53
2022-11-07T14:28:49.045Z,2.28
2022-11-07T14:31:27.319Z,3.45
2022-11-07T14:33:57.993Z,3.15
2022-11-07T14:36:26.087Z,3.20
2022-11-07T14:39:00.095Z,2.85
2022-11-07T14:41:27.002Z,4.07
2022-11-07T14:43:54.012Z,2.97
2022-11-07T14:46:24.050Z,2.50
2022-11-07T14:48:52.411Z,2.70
2022-11-07T14:51:29.300Z,3.85
2022-11-07T14:54:04.959Z,1.67
2022-11-07T14:56:42.718Z,1.92
2022-11-07T14:59:14.437Z,2.65
2022-11-07T15:02:14.036Z,3.97
2022-11-07T15:04:47.421Z,3.33
2022-11-07T15:07:32.192Z,2.67
2022-11-07T15:10:13.100Z,5.07
2022-11-07T15:12:57.708Z,3.90
2022-11-07T15:15:39.096Z,4.75
2022-11-07T15:18:07.108Z,4.82
2022-11-07T15:20:38.064Z,3.20
2022-11-07T15:23:26.941Z,6.00
2022-11-07T15:26:20.440Z,5.63
2022-11-07T15:31:30.268Z,2.67
2022-11-07T15:33:59.449Z,2.13
2022-11-07T15:36:26.573Z,6.13
2022-11-07T15:38:54.277Z,2.60
2022-11-07T15:41:21.120Z,2.50
2022-11-07T15:43:47.946Z,6.05
2022-11-07T15:46:37.395Z,4.38
2022-11-07T15:49:04.880Z,6.10
2022-11-07T15:51:31.981Z,5.40
2022-11-07T15:53:59.113Z,6.60
2022-11-07T15:56:26.725Z,7.35
2022-11-07T15:58:55.707Z,9.38
2022-11-07T16:01:23.383Z,2.33
2022-11-07T16:03:50.273Z,2.80
2022-11-07T16:06:24.177Z,6.47
2022-11-07T16:08:50.990Z,6.93
2022-11-07T16:11:17.870Z,5.90
2022-11-07T16:13:45.098Z,4.10
2022-11-07T16:16:32.900Z,3.90
2022-11-07T16:19:00.737Z,6.55
2022-11-07T16:21:27.489Z,6.47
2022-11-07T16:23:54.443Z,3.80
2022-11-07T16:26:29.084Z,4.88
2022-11-07T16:28:56.108Z,25.52
2022-11-07T16:31:22.947Z,100.82
2022-11-07T16:33:49.861Z,66.80
2022-11-07T16:36:28.584Z,28.23
2022-11-07T16:38:55.537Z,22.55
2022-11-07T16:41:23.097Z,15.38
2022-11-07T16:43:50.166Z,13.43
2022-11-07T16:46:21.385Z,7.05
2022-11-07T16:48:52.538Z,8.73
2022-11-07T16:51:22.032Z,8.75
2022-11-07T16:53:49.286Z,9.30
2022-11-07T16:56:29.521Z,4.60
2022-11-07T16:58:57.691Z,11.05
2022-11-07T17:01:25.594Z,5.80
2022-11-07T17:03:52.708Z,6.00
2022-11-07T17:06:27.160Z,5.40
2022-11-07T17:08:56.012Z,6.57
2022-11-07T17:11:26.996Z,6.00
2022-11-07T17:13:53.856Z,13.68
2022-11-07T17:16:25.664Z,3.42
2022-11-07T17:18:53.210Z,8.35
2022-11-07T17:21:36.868Z,2.15
2022-11-07T17:24:04.657Z,1.13
2022-11-07T17:26:38.940Z,2.45
2022-11-07T17:29:08.668Z,1.65
2022-11-07T17:31:35.515Z,2.80
2022-11-07T17:34:02.615Z,4.72
2022-11-07T17:36:37.697Z,3.40
2022-11-07T17:39:11.534Z,1.88
2022-11-07T17:41:43.380Z,2.88
2022-11-07T17:44:11.228Z,4.32
2022-11-07T17:46:43.293Z,2.58
2022-11-07T17:49:13.676Z,5.73
2022-11-07T17:51:42.143Z,2.17
2022-11-07T17:54:14.848Z,2.97
2022-11-07T17:56:42.213Z,1.95
2022-11-07T17:59:14.998Z,2.38
2022-11-07T18:01:42.179Z,2.45
2022-11-07T18:04:11.349Z,2.60
2022-11-07T18:06:41.774Z,1.50
2022-11-07T18:09:13.793Z,3.92
2022-11-07T18:11:40.565Z,3.83
2022-11-07T18:14:07.864Z,3.78
2022-11-07T18:16:37.365Z,2.55
2022-11-07T18:19:05.513Z,1.45
2022-11-07T18:21:32.686Z,5.97
2022-11-07T18:23:59.456Z,3.35
2022-11-07T18:26:31.067Z,2.17
2022-11-07T18:29:08.449Z,6.05
2022-11-07T18:31:36.666Z,3.03
2022-11-07T18:34:07.128Z,3.85
2022-11-07T18:36:37.905Z,3.85
2022-11-07T18:39:16.274Z,10.80
2022-11-07T18:41:43.795Z,7.10
2022-11-07T18:44:12.111Z,2.75
2022-11-07T18:46:39.696Z,5.60
2022-11-07T18:49:07.279Z,6.90
2022-11-07T18:51:35.713Z,5.45
2022-11-07T18:54:04.927Z,4.32
2022-11-07T18:56:31.974Z,3.95
2022-11-07T18:58:59.285Z,4.72
2022-11-07T19:01:31.071Z,1.70
2022-11-07T19:04:01.527Z,2.30
2022-11-07T19:06:30.002Z,2.67
2022-11-07T19:08:56.961Z,3.83
2022-11-07T19:11:29.387Z,3.42
2022-11-07T19:14:00.897Z,5.65
2022-11-07T19:16:28.333Z,4.95
2022-11-07T19:18:55.097Z,4.70
2022-11-07T19:21:23.548Z,8.35
2022-11-07T19:23:51.056Z,7.25
2022-11-07T19:26:21.691Z,6.55
2022-11-07T19:28:48.867Z,6.50
2022-11-07T19:31:16.337Z,6.00
2022-11-07T19:33:43.940Z,5.93
2022-11-07T19:36:18.511Z,4.15
2022-11-07T19:38:46.072Z,4.45
2022-11-07T19:41:14.602Z,7.35
2022-11-07T19:43:43.387Z,4.30
2022-11-07T19:46:15.213Z,1.90
2022-11-07T19:48:42.886Z,3.97
2022-11-07T19:51:21.013Z,3.65
2022-11-07T19:53:56.404Z,2.85
2022-11-07T19:56:27.131Z,2.38
2022-11-07T19:58:54.816Z,3.13
2022-11-07T20:01:27.788Z,3.28
2022-11-07T20:03:56.214Z,5.45
2022-11-07T20:06:33.104Z,6.15
2022-11-07T20:09:06.460Z,5.65
2022-11-07T20:11:33.741Z,5.15
2022-11-07T20:14:03.638Z,3.40
2022-11-07T20:16:31.304Z,3.67
2022-11-07T20:18:58.053Z,2.45
2022-11-07T20:21:25.764Z,5.38
2022-11-07T20:23:53.884Z,4.57
2022-11-07T20:26:23.138Z,3.63
2022-11-07T20:28:50.641Z,2.75
2022-11-07T20:31:22.393Z,4.32
2022-11-07T20:33:49.803Z,6.60
2022-11-07T20:36:16.927Z,4.47
2022-11-07T20:38:44.358Z,3.45
2022-11-07T20:41:13.049Z,3.97
2022-11-07T20:43:40.636Z,2.33
2022-11-07T20:46:11.535Z,1.92
2022-11-07T20:48:39.027Z,2.58
2022-11-07T20:51:20.108Z,10.35
2022-11-07T20:53:50.381Z,5.38
2022-11-07T20:56:20.090Z,4.32
2022-11-07T20:58:47.866Z,8.65
2022-11-07T21:01:21.293Z,2.25
2022-11-07T21:03:48.722Z,3.55
2022-11-07T21:06:16.053Z,2.70
2022-11-07T21:08:46.728Z,3.38
2022-11-07T21:11:14.945Z,5.90
2022-11-07T21:13:46.629Z,3.72
2022-11-07T21:16:18.880Z,7.72
2022-11-07T21:18:45.933Z,4.82
2022-11-07T21:21:20.384Z,3.88
2022-11-07T21:23:49.225Z,5.97
2022-11-07T21:26:26.749Z,3.22
2022-11-07T21:28:55.082Z,4.70
2022-11-07T21:31:27.191Z,4.28
2022-11-07T21:33:54.976Z,3.40
2022-11-07T21:36:27.871Z,3.35
2022-11-07T21:41:22.991Z,31.50
2022-11-07T21:43:50.216Z,9.10
2022-11-07T21:46:38.540Z,9.73
2022-11-07T21:49:06.374Z,2.15
2022-11-07T21:51:34.970Z,6.55
2022-11-07T21:54:03.820Z,2.40
2022-11-07T21:56:37.077Z,6.45
2022-11-07T21:59:11.736Z,5.10
2022-11-07T22:01:39.810Z,4.63
2022-11-07T22:04:11.141Z,2.45
2022-11-07T22:06:44.905Z,6.33
2022-11-07T22:11:41.488Z,4.18
2022-11-07T22:14:12.742Z,6.30
2022-11-07T22:16:39.543Z,3.22
2022-11-07T22:19:12.052Z,6.88
2022-11-07T22:21:39.934Z,3.20
2022-11-07T22:24:07.154Z,3.70
2022-11-07T22:26:33.902Z,6.82
2022-11-07T22:29:00.653Z,2.63
2022-11-07T22:31:30.622Z,7.05
2022-11-07T22:34:00.016Z,3.67
2022-11-07T22:36:27.405Z,3.80
2022-11-07T22:38:56.389Z,8.60
2022-11-07T22:41:25.473Z,3.97
2022-11-07T22:43:53.287Z,6.53
2022-11-07T22:46:26.621Z,3.67
2022-11-07T22:48:54.232Z,3.45
2022-11-07T22:51:33.817Z,9.73
2022-11-07T22:54:13.293Z,4.13
2022-11-07T22:56:40.742Z,6.88
2022-11-07T22:59:08.223Z,7.10
2022-11-07T23:01:39.115Z,12.18
2022-11-07T23:04:07.660Z,5.57
2022-11-07T23:06:34.897Z,3.88
2022-11-07T23:09:02.671Z,11.07
2022-11-07T23:11:48.830Z,6.18
2022-11-07T23:14:21.621Z,4.93
2022-11-07T23:16:51.642Z,5.88
2022-11-07T23:19:22.343Z,8.52
2022-11-07T23:21:55.246Z,5.95
2022-11-07T23:26:49.657Z,2.55
2022-11-07T23:29:24.178Z,2.72
2022-11-07T23:31:52.435Z,4.88
2022-11-07T23:34:21.240Z,2.47
2022-11-07T23:36:51.186Z,4.05
2022-11-07T23:39:21.848Z,4.72
2022-11-07T23:41:48.802Z,5.55
2022-11-07T23:44:16.119Z,6.22
2022-11-07T23:47:03.193Z,16.20
2022-11-07T23:49:48.915Z,3.80
2022-11-07T23:52:16.714Z,5.80
2022-11-07T23:55:02.352Z,7.72
2022-11-07T23:57:29.234Z,4.75
